createdAt,value
2023-09-08T00:00:10.336Z,62.06
2023-09-08T00:02:37.678Z,63.10
2023-09-08T00:05:04.944Z,63.26
2023-09-08T00:07:32.246Z,63.55
2023-09-08T00:09:59.405Z,62.75
2023-09-08T00:12:26.686Z,63.12
2023-09-08T00:14:53.864Z,62.68
2023-09-08T00:17:21.112Z,63.06
2023-09-08T00:19:48.266Z,62.90
2023-09-08T00:22:15.507Z,63.64
2023-09-08T00:24:42.637Z,63.05
2023-09-08T00:27:10.845Z,63.46
2023-09-08T00:29:37.960Z,63.41
2023-09-08T00:32:05.307Z,62.54
2023-09-08T00:34:32.476Z,63.24
2023-09-08T00:37:01.581Z,62.71
2023-09-08T00:39:28.858Z,62.57
2023-09-08T00:41:56.145Z,64.21
2023-09-08T00:44:23.400Z,63.02
2023-09-08T00:46:50.633Z,63.36
2023-09-08T00:49:18.072Z,63.21
2023-09-08T00:51:45.486Z,63.25
2023-09-08T00:54:12.753Z,63.56
2023-09-08T00:56:40.180Z,64.14
2023-09-08T00:59:08.676Z,62.86
2023-09-08T01:01:35.991Z,63.26
2023-09-08T01:04:03.849Z,64.10
2023-09-08T01:06:33.931Z,63.19
2023-09-08T01:09:01.391Z,63.00
2023-09-08T01:11:28.888Z,63.31
2023-09-08T01:13:56.138Z,62.43
2023-09-08T01:16:23.548Z,62.49
2023-09-08T01:18:52.070Z,62.83
2023-09-08T01:21:35.200Z,62.49
2023-09-08T01:24:05.545Z,62.52
2023-09-08T01:26:36.827Z,62.17
2023-09-08T01:29:04.795Z,62.42
2023-09-08T01:31:34.352Z,62.37
2023-09-08T01:34:02.675Z,62.46
2023-09-08T01:36:29.789Z,61.93
2023-09-08T01:38:56.984Z,61.69
2023-09-08T01:41:26.636Z,62.15
2023-09-08T01:43:53.872Z,61.53
2023-09-08T01:46:21.100Z,60.90
2023-09-08T01:48:48.388Z,61.25
2023-09-08T01:51:15.645Z,61.09
2023-09-08T01:53:42.792Z,61.37
2023-09-08T01:56:11.121Z,61.57
2023-09-08T01:58:38.594Z,59.61
2023-09-08T02:01:07.083Z,60.95
2023-09-08T02:03:35.977Z,60.18
2023-09-08T02:06:03.235Z,60.17
2023-09-08T02:08:30.433Z,60.66
2023-09-08T02:10:57.531Z,60.82
2023-09-08T02:13:24.761Z,61.19
2023-09-08T02:15:52.486Z,61.74
2023-09-08T02:18:19.855Z,62.58
2023-09-08T02:20:47.076Z,62.62
2023-09-08T02:23:14.405Z,60.82
2023-09-08T02:25:41.536Z,62.27
2023-09-08T02:28:08.812Z,62.43
2023-09-08T02:30:36.803Z,61.27
2023-09-08T02:33:04.323Z,62.67
2023-09-08T02:35:31.670Z,62.22
2023-09-08T02:38:00.401Z,63.06
2023-09-08T02:40:28.715Z,62.98
2023-09-08T02:42:55.968Z,63.34
2023-09-08T02:45:23.499Z,64.20
2023-09-08T02:47:51.092Z,64.02
2023-09-08T02:50:18.309Z,64.45
2023-09-08T02:52:46.319Z,64.61
2023-09-08T02:55:13.801Z,64.44
2023-09-08T02:57:40.987Z,63.77
2023-09-08T03:00:08.726Z,62.68
2023-09-08T03:02:36.057Z,64.18
2023-09-08T03:05:03.553Z,64.09
2023-09-08T03:07:31.421Z,64.20
2023-09-08T03:09:59.009Z,64.20
2023-09-08T03:12:26.157Z,64.57
2023-09-08T03:14:53.407Z,64.79
2023-09-08T03:17:20.662Z,64.21
2023-09-08T03:19:48.037Z,63.69
2023-09-08T03:22:15.371Z,65.43
2023-09-08T03:24:42.616Z,66.35
2023-09-08T03:27:09.829Z,65.63
2023-09-08T03:29:37.828Z,66.44
2023-09-08T03:32:05.390Z,66.30
2023-09-08T03:34:33.404Z,66.33
2023-09-08T03:37:01.893Z,65.67
2023-09-08T03:39:29.188Z,65.37
2023-09-08T03:41:56.369Z,66.20
2023-09-08T03:44:23.853Z,66.25
2023-09-08T03:46:51.346Z,65.91
2023-09-08T03:49:19.717Z,66.08
2023-09-08T03:51:46.886Z,65.90
2023-09-08T03:54:14.232Z,65.35
2023-09-08T03:56:41.354Z,65.76
2023-09-08T03:59:18.061Z,65.82
2023-09-08T04:01:45.345Z,66.08
2023-09-08T04:04:12.554Z,66.55
2023-09-08T04:06:39.905Z,67.09
2023-09-08T04:09:07.132Z,65.92
2023-09-08T04:11:34.414Z,65.64
2023-09-08T04:14:01.624Z,65.48
2023-09-08T04:16:29.489Z,65.33
2023-09-08T04:18:57.037Z,65.74
2023-09-08T04:21:26.221Z,65.71
2023-09-08T04:23:53.534Z,66.20
2023-09-08T04:26:20.840Z,65.76
2023-09-08T04:28:48.426Z,65.93
2023-09-08T04:31:15.887Z,66.17
2023-09-08T04:33:43.530Z,66.74
2023-09-08T04:36:12.303Z,66.39
2023-09-08T04:38:39.699Z,66.24
2023-09-08T04:41:06.844Z,66.55
2023-09-08T04:43:34.301Z,66.96
2023-09-08T04:46:04.084Z,67.33
2023-09-08T04:48:32.070Z,68.09
2023-09-08T04:50:59.589Z,68.72
2023-09-08T04:53:27.433Z,68.72
2023-09-08T04:55:54.756Z,68.44
2023-09-08T04:58:22.152Z,67.75
2023-09-08T05:00:50.479Z,67.10
2023-09-08T05:03:17.851Z,68.49
2023-09-08T05:05:45.972Z,68.11
2023-09-08T05:08:13.746Z,66.88
2023-09-08T05:10:40.935Z,66.85
2023-09-08T05:13:14.080Z,67.23
2023-09-08T05:15:49.958Z,68.28
2023-09-08T05:18:17.445Z,67.62
2023-09-08T05:20:44.786Z,67.78
2023-09-08T05:23:11.985Z,66.98
2023-09-08T05:25:39.202Z,67.43
2023-09-08T05:28:06.525Z,67.07
2023-09-08T05:30:33.851Z,67.43
2023-09-08T05:33:01.209Z,68.52
2023-09-08T05:35:32.289Z,69.59
2023-09-08T05:38:01.045Z,69.96
2023-09-08T05:40:28.155Z,70.66
2023-09-08T05:42:55.689Z,66.63
2023-09-08T05:45:23.628Z,69.15
2023-09-08T05:47:52.034Z,70.64
2023-09-08T05:50:19.850Z,69.37
2023-09-08T05:52:47.290Z,69.49
2023-09-08T05:55:14.609Z,69.48
2023-09-08T05:57:41.936Z,69.66
2023-09-08T06:00:10.018Z,70.49
2023-09-08T06:02:53.576Z,69.74
2023-09-08T06:05:27.356Z,70.88
2023-09-08T06:08:06.593Z,69.61
2023-09-08T06:10:37.148Z,70.75
2023-09-08T06:13:04.622Z,69.39
2023-09-08T06:15:31.795Z,70.95
2023-09-08T06:17:59.157Z,73.23
2023-09-08T06:20:27.976Z,73.01
2023-09-08T06:22:55.632Z,72.87
2023-09-08T06:25:22.953Z,73.04
2023-09-08T06:27:58.615Z,72.90
2023-09-08T06:30:36.089Z,71.86
2023-09-08T06:33:05.401Z,69.92
2023-09-08T06:35:41.172Z,68.27
2023-09-08T06:38:11.051Z,65.07
2023-09-08T06:40:43.351Z,63.39
2023-09-08T06:43:10.622Z,67.42
2023-09-08T06:45:48.360Z,68.35
2023-09-08T06:48:15.983Z,65.95
2023-09-08T06:50:43.237Z,66.23
2023-09-08T06:53:11.779Z,65.97
2023-09-08T06:55:40.034Z,67.74
2023-09-08T06:58:08.725Z,64.33
2023-09-08T07:00:36.032Z,62.37
2023-09-08T07:03:05.106Z,56.78
2023-09-08T07:05:32.566Z,59.19
2023-09-08T07:07:59.869Z,55.50
2023-09-08T07:10:27.636Z,52.84
2023-09-08T07:12:55.009Z,55.34
2023-09-08T07:15:22.292Z,55.86
2023-09-08T07:17:49.680Z,52.31
2023-09-08T07:20:16.937Z,52.82
2023-09-08T07:22:44.164Z,52.43
2023-09-08T07:25:11.355Z,50.93
2023-09-08T07:27:38.752Z,49.08
2023-09-08T07:30:07.480Z,46.46
2023-09-08T07:32:35.686Z,48.16
2023-09-08T07:35:03.360Z,44.14
2023-09-08T07:37:30.984Z,43.66
2023-09-08T07:39:59.117Z,40.66
2023-09-08T07:42:26.795Z,41.17
2023-09-08T07:44:54.985Z,41.51
2023-09-08T07:47:22.305Z,44.13
2023-09-08T07:49:49.764Z,42.21
2023-09-08T07:52:19.823Z,40.11
2023-09-08T07:54:47.062Z,42.41
2023-09-08T07:57:14.286Z,41.26
2023-09-08T07:59:41.692Z,40.08
2023-09-08T08:02:08.894Z,40.48
2023-09-08T08:04:36.310Z,38.74
2023-09-08T08:07:03.532Z,41.04
2023-09-08T08:09:30.720Z,39.25
2023-09-08T08:11:57.931Z,40.14
2023-09-08T08:14:25.200Z,35.69
2023-09-08T08:16:52.266Z,35.46
2023-09-08T08:19:19.463Z,36.25
2023-09-08T08:21:46.628Z,36.68
2023-09-08T08:24:13.976Z,36.42
2023-09-08T08:26:41.101Z,36.69
2023-09-08T08:29:08.316Z,35.97
2023-09-08T08:31:35.500Z,36.84
2023-09-08T08:34:02.665Z,36.20
2023-09-08T08:36:29.977Z,35.67
2023-09-08T08:38:57.173Z,36.18
2023-09-08T08:41:27.001Z,37.84
2023-09-08T08:43:54.694Z,37.30
2023-09-08T08:46:24.003Z,37.17
2023-09-08T08:48:55.395Z,37.07
2023-09-08T08:51:24.165Z,37.88
2023-09-08T08:53:51.349Z,37.85
2023-09-08T08:56:19.283Z,38.37
2023-09-08T08:58:46.659Z,38.76
2023-09-08T09:01:14.097Z,37.85
2023-09-08T09:03:41.511Z,37.85
2023-09-08T09:06:08.788Z,36.67
2023-09-08T09:08:36.633Z,36.50
2023-09-08T09:11:04.039Z,36.48
2023-09-08T09:13:31.575Z,36.00
2023-09-08T09:16:00.110Z,36.32
2023-09-08T09:18:31.448Z,35.85
2023-09-08T09:21:02.611Z,36.79
2023-09-08T09:23:34.618Z,35.34
2023-09-08T09:26:02.627Z,35.26
2023-09-08T09:28:31.563Z,34.72
2023-09-08T09:31:00.314Z,34.08
2023-09-08T09:33:29.240Z,34.17
2023-09-08T09:35:56.871Z,33.67
2023-09-08T09:38:28.088Z,33.80
2023-09-08T09:40:56.306Z,34.01
2023-09-08T09:43:24.210Z,33.63
2023-09-08T09:45:52.016Z,33.54
2023-09-08T09:48:21.873Z,34.09
2023-09-08T09:50:50.146Z,33.15
2023-09-08T09:53:18.370Z,33.20
2023-09-08T09:55:46.820Z,32.98
2023-09-08T09:58:15.572Z,33.05
2023-09-08T10:00:48.665Z,32.96
2023-09-08T10:03:18.133Z,32.64
2023-09-08T10:05:48.145Z,32.62
2023-09-08T10:08:15.423Z,32.89
2023-09-08T10:10:47.121Z,32.55
2023-09-08T10:13:19.071Z,32.49
2023-09-08T10:15:47.685Z,32.36
2023-09-08T10:18:17.745Z,31.88
2023-09-08T10:20:45.998Z,31.92
2023-09-08T10:23:17.665Z,31.57
2023-09-08T10:25:54.273Z,31.60
2023-09-08T10:28:25.813Z,31.08
2023-09-08T10:30:54.442Z,31.31
2023-09-08T10:33:25.053Z,31.88
2023-09-08T10:35:53.546Z,32.09
2023-09-08T10:38:35.348Z,32.07
2023-09-08T10:41:29.905Z,32.35
2023-09-08T10:43:59.605Z,31.70
2023-09-08T10:46:28.765Z,31.95
2023-09-08T10:49:03.652Z,31.97
2023-09-08T10:51:31.552Z,31.95
2023-09-08T10:53:59.409Z,32.16
2023-09-08T10:56:54.773Z,31.97
2023-09-08T10:59:28.801Z,32.14
2023-09-08T11:01:56.681Z,32.88
2023-09-08T11:05:43.509Z,32.15
2023-09-08T11:07:39.660Z,32.60
2023-09-08T11:10:08.346Z,32.12
2023-09-08T11:12:35.958Z,32.18
2023-09-08T11:15:06.382Z,32.11
2023-09-08T11:20:46.793Z,31.85
2023-09-08T11:23:14.668Z,31.77
2023-09-08T11:25:44.815Z,31.89
2023-09-08T11:28:14.243Z,31.98
2023-09-08T11:30:53.287Z,31.84
2023-09-08T11:33:34.898Z,31.72
2023-09-08T11:36:03.050Z,32.30
2023-09-08T11:38:32.895Z,32.01
2023-09-08T11:41:04.320Z,31.93
2023-09-08T11:43:46.775Z,32.50
2023-09-08T11:46:16.342Z,31.93
2023-09-08T11:48:44.753Z,32.12
2023-09-08T11:51:12.130Z,32.42
2023-09-08T11:53:42.601Z,32.68
2023-09-08T11:56:10.763Z,31.74
2023-09-08T11:58:38.894Z,31.82
2023-09-08T12:01:07.210Z,31.88
2023-09-08T12:03:35.056Z,32.14
2023-09-08T12:06:03.705Z,31.80
2023-09-08T12:08:31.876Z,31.88
2023-09-08T12:11:00.015Z,31.98
2023-09-08T12:13:27.888Z,32.03
2023-09-08T12:15:55.906Z,31.44
2023-09-08T12:21:56.869Z,31.72
2023-09-08T12:24:50.346Z,31.52
2023-09-08T12:27:19.878Z,31.76
2023-09-08T12:29:55.411Z,32.16
2023-09-08T12:32:26.846Z,32.17
2023-09-08T12:34:56.417Z,32.23
2023-09-08T12:37:30.231Z,32.28
2023-09-08T12:39:58.108Z,32.06
2023-09-08T12:42:31.898Z,31.80
2023-09-08T12:45:11.887Z,31.88
2023-09-08T12:47:40.547Z,32.34
2023-09-08T12:50:08.971Z,32.31
2023-09-08T12:52:36.754Z,32.21
2023-09-08T12:55:05.193Z,32.55
2023-09-08T12:57:40.602Z,32.44
2023-09-08T13:00:09.144Z,31.56
2023-09-08T13:02:37.134Z,31.84
2023-09-08T13:05:05.448Z,31.91
2023-09-08T13:07:33.645Z,30.98
2023-09-08T13:10:05.903Z,32.10
2023-09-08T13:13:02.336Z,31.44
2023-09-08T13:15:30.640Z,31.75
2023-09-08T13:17:58.258Z,32.33
2023-09-08T13:20:26.040Z,32.00
2023-09-08T13:22:53.530Z,31.81
2023-09-08T13:25:29.610Z,31.84
2023-09-08T13:27:57.206Z,32.30
2023-09-08T13:30:27.823Z,31.91
2023-09-08T13:32:57.035Z,31.74
2023-09-08T13:35:27.667Z,31.69
2023-09-08T13:37:55.136Z,31.58
2023-09-08T13:40:23.828Z,31.76
2023-09-08T13:42:54.458Z,31.29
2023-09-08T13:45:22.162Z,31.87
2023-09-08T13:47:50.613Z,31.55
2023-09-08T13:50:18.521Z,32.15
2023-09-08T13:52:47.761Z,32.21
2023-09-08T13:57:49.733Z,31.70
2023-09-08T14:00:24.074Z,32.02
2023-09-08T14:02:57.831Z,31.37
2023-09-08T14:05:28.431Z,31.67
2023-09-08T14:08:08.442Z,32.06
2023-09-08T14:10:53.181Z,32.74
2023-09-08T14:13:31.979Z,31.98
2023-09-08T14:16:02.527Z,32.10
2023-09-08T14:18:31.429Z,32.63
2023-09-08T14:20:58.834Z,32.05
2023-09-08T14:23:27.091Z,32.24
2023-09-08T14:25:54.860Z,32.21
2023-09-08T14:28:22.547Z,32.83
2023-09-08T14:30:54.510Z,32.60
2023-09-08T14:33:22.004Z,32.63
2023-09-08T14:35:52.643Z,32.03
2023-09-08T14:38:20.321Z,32.52
2023-09-08T14:40:57.663Z,32.93
2023-09-08T14:43:28.415Z,32.23
2023-09-08T14:46:11.164Z,32.33
2023-09-08T14:48:38.742Z,32.43
2023-09-08T14:51:06.276Z,32.23
2023-09-08T14:53:33.756Z,32.19
2023-09-08T14:56:01.342Z,32.61
2023-09-08T14:58:33.001Z,32.54
2023-09-08T15:01:10.202Z,32.39
2023-09-08T15:03:38.102Z,32.66
2023-09-08T15:06:05.744Z,32.63
2023-09-08T15:08:34.546Z,32.51
2023-09-08T15:11:02.036Z,32.50
2023-09-08T15:13:29.420Z,32.99
2023-09-08T15:15:58.969Z,33.67
2023-09-08T15:18:29.372Z,33.67
2023-09-08T15:20:57.415Z,33.44
2023-09-08T15:23:24.987Z,33.37
2023-09-08T15:25:56.535Z,33.97
2023-09-08T15:28:24.111Z,33.77
2023-09-08T15:30:52.598Z,33.65
2023-09-08T15:33:21.535Z,33.93
2023-09-08T15:35:49.303Z,34.23
2023-09-08T15:38:16.661Z,34.79
2023-09-08T15:41:02.796Z,34.16
2023-09-08T15:43:29.957Z,34.37
2023-09-08T15:45:57.098Z,34.63
2023-09-08T15:48:24.776Z,34.42
2023-09-08T15:50:52.065Z,33.74
2023-09-08T15:53:19.241Z,34.06
2023-09-08T15:55:46.582Z,34.51
2023-09-08T15:58:13.816Z,33.87
2023-09-08T16:00:41.683Z,33.68
2023-09-08T16:03:09.149Z,33.51
2023-09-08T16:05:36.306Z,33.85
2023-09-08T16:08:03.730Z,33.97
2023-09-08T16:10:31.149Z,33.93
2023-09-08T16:12:59.315Z,33.84
2023-09-08T16:15:26.475Z,33.80
2023-09-08T16:17:53.838Z,34.45
2023-09-08T16:20:22.868Z,34.26
2023-09-08T16:22:50.408Z,33.64
2023-09-08T16:25:17.767Z,34.27
2023-09-08T16:27:47.885Z,33.95
2023-09-08T16:30:15.439Z,33.95
2023-09-08T16:32:42.868Z,33.90
2023-09-08T16:35:10.149Z,34.02
2023-09-08T16:37:37.287Z,34.91
2023-09-08T16:40:04.748Z,34.78
2023-09-08T16:42:32.010Z,34.55
2023-09-08T16:44:59.155Z,34.08
2023-09-08T16:47:26.693Z,34.25
2023-09-08T16:49:54.929Z,34.05
2023-09-08T16:52:25.404Z,34.90
2023-09-08T16:54:52.937Z,37.27
2023-09-08T16:57:20.413Z,35.79
2023-09-08T16:59:48.196Z,37.85
2023-09-08T17:02:15.618Z,39.76
2023-09-08T17:04:45.298Z,38.80
2023-09-08T17:07:13.372Z,39.51
2023-09-08T17:09:48.621Z,38.32
2023-09-08T17:12:16.118Z,36.82
2023-09-08T17:14:43.696Z,38.68
2023-09-08T17:17:11.035Z,39.77
2023-09-08T17:19:38.292Z,39.37
2023-09-08T17:22:05.521Z,40.06
2023-09-08T17:24:32.756Z,39.93
2023-09-08T17:27:00.043Z,41.35
2023-09-08T17:29:27.395Z,41.25
2023-09-08T17:31:56.453Z,40.79
2023-09-08T17:34:24.159Z,41.25
2023-09-08T17:36:56.993Z,41.75
2023-09-08T17:39:24.757Z,42.04
2023-09-08T17:41:52.119Z,42.22
2023-09-08T17:44:19.583Z,43.28
2023-09-08T17:46:47.346Z,43.29
2023-09-08T17:49:14.857Z,43.80
2023-09-08T17:51:42.048Z,43.56
2023-09-08T17:54:09.355Z,44.63
2023-09-08T17:56:36.760Z,45.79
2023-09-08T17:59:04.220Z,45.82
2023-09-08T18:01:31.764Z,46.27
2023-09-08T18:04:00.625Z,46.39
2023-09-08T18:06:28.150Z,46.34
2023-09-08T18:08:55.637Z,46.72
2023-09-08T18:11:23.138Z,46.51
2023-09-08T18:13:56.869Z,45.87
2023-09-08T18:16:24.574Z,46.52
2023-09-08T18:18:52.003Z,46.82
2023-09-08T18:21:21.701Z,47.87
2023-09-08T18:23:49.223Z,47.68
2023-09-08T18:26:17.469Z,47.95
2023-09-08T18:28:45.478Z,47.22
2023-09-08T18:31:13.140Z,47.87
2023-09-08T18:33:41.397Z,47.69
2023-09-08T18:36:08.912Z,47.79
2023-09-08T18:38:36.375Z,48.06
2023-09-08T18:41:03.856Z,48.05
2023-09-08T18:43:31.360Z,48.57
2023-09-08T18:45:58.735Z,48.76
2023-09-08T18:48:26.555Z,47.71
2023-09-08T18:50:54.403Z,47.94
2023-09-08T18:53:21.834Z,48.64
2023-09-08T18:55:49.195Z,48.29
2023-09-08T18:58:16.745Z,48.74
2023-09-08T19:00:47.260Z,48.51
2023-09-08T19:03:15.240Z,48.09
2023-09-08T19:05:45.677Z,48.50
2023-09-08T19:08:15.024Z,48.37
2023-09-08T19:10:42.950Z,49.22
2023-09-08T19:13:10.617Z,49.46
2023-09-08T19:15:38.456Z,49.31
2023-09-08T19:18:06.345Z,48.97
2023-09-08T19:20:33.764Z,49.01
2023-09-08T19:23:01.599Z,48.75
2023-09-08T19:25:29.177Z,49.97
2023-09-08T19:27:57.585Z,49.08
2023-09-08T19:30:25.152Z,50.17
2023-09-08T19:32:52.602Z,49.97
2023-09-08T19:35:19.989Z,49.58
2023-09-08T19:37:47.851Z,49.62
2023-09-08T19:40:15.173Z,49.85
2023-09-08T19:42:42.829Z,50.25
2023-09-08T19:45:10.868Z,50.99
2023-09-08T19:47:39.003Z,51.14
2023-09-08T19:50:06.931Z,51.28
2023-09-08T19:52:34.321Z,50.85
2023-09-08T19:55:01.805Z,51.45
2023-09-08T19:57:29.237Z,51.18
2023-09-08T19:59:56.672Z,50.69
2023-09-08T20:02:24.050Z,51.70
2023-09-08T20:04:51.636Z,52.02
2023-09-08T20:07:18.990Z,52.01
2023-09-08T20:09:46.732Z,52.17
2023-09-08T20:12:16.959Z,52.09
2023-09-08T20:14:44.519Z,51.86
2023-09-08T20:17:11.981Z,51.63
2023-09-08T20:19:39.614Z,52.13
2023-09-08T20:22:07.060Z,51.55
2023-09-08T20:24:34.426Z,51.90
2023-09-08T20:27:02.148Z,53.04
2023-09-08T20:29:30.801Z,51.89
2023-09-08T20:31:58.518Z,52.18
2023-09-08T20:34:26.210Z,52.70
2023-09-08T20:36:53.662Z,51.75
2023-09-08T20:39:21.888Z,51.67
2023-09-08T20:41:50.116Z,52.52
2023-09-08T20:44:17.791Z,52.00
2023-09-08T20:46:47.499Z,52.60
2023-09-08T20:49:15.056Z,52.80
2023-09-08T20:51:42.510Z,53.41
2023-09-08T20:54:09.869Z,53.05
2023-09-08T20:56:38.660Z,53.46
2023-09-08T20:59:06.133Z,53.04
2023-09-08T21:01:33.580Z,52.67
2023-09-08T21:04:00.965Z,53.52
2023-09-08T21:06:28.367Z,52.85
2023-09-08T21:08:55.863Z,52.83
2023-09-08T21:11:23.275Z,53.08
2023-09-08T21:13:50.775Z,54.16
2023-09-08T21:16:18.149Z,53.43
2023-09-08T21:18:45.863Z,53.43
2023-09-08T21:21:13.183Z,53.85
2023-09-08T21:23:41.627Z,53.55
2023-09-08T21:26:10.465Z,53.72
2023-09-08T21:28:38.329Z,54.33
2023-09-08T21:31:08.624Z,53.94
2023-09-08T21:33:38.608Z,55.05
2023-09-08T21:36:08.229Z,54.66
2023-09-08T21:38:35.936Z,54.64
2023-09-08T21:41:11.068Z,54.95
2023-09-08T21:43:41.188Z,55.43
2023-09-08T21:46:09.947Z,55.28
2023-09-08T21:48:38.298Z,54.83
2023-09-08T21:51:06.389Z,54.57
2023-09-08T21:53:34.093Z,54.99
2023-09-08T21:56:01.964Z,55.38
2023-09-08T21:58:29.465Z,54.85
2023-09-08T22:00:58.537Z,54.15
2023-09-08T22:03:26.124Z,54.73
2023-09-08T22:05:53.686Z,54.44
2023-09-08T22:08:21.144Z,54.49
2023-09-08T22:10:51.904Z,54.96
2023-09-08T22:13:19.394Z,55.06
2023-09-08T22:15:46.885Z,54.92
2023-09-08T22:18:14.365Z,55.11
2023-09-08T22:20:42.415Z,56.05
2023-09-08T22:23:11.978Z,57.11
2023-09-08T22:25:39.799Z,57.74
2023-09-08T22:28:07.689Z,57.77
2023-09-08T22:30:35.281Z,57.87
2023-09-08T22:33:02.842Z,58.14
2023-09-08T22:35:30.734Z,58.27
2023-09-08T22:37:59.206Z,58.09
2023-09-08T22:40:26.652Z,58.44
2023-09-08T22:42:54.845Z,56.88
2023-09-08T22:45:22.434Z,58.61
2023-09-08T22:47:49.988Z,58.88
2023-09-08T22:50:17.804Z,57.40
2023-09-08T22:52:45.821Z,57.21
2023-09-08T22:55:25.296Z,57.41
2023-09-08T22:57:54.872Z,57.71
2023-09-08T23:00:24.599Z,58.74
2023-09-08T23:02:52.215Z,59.17
2023-09-08T23:05:20.033Z,58.68
2023-09-08T23:07:50.105Z,59.03
2023-09-08T23:10:17.857Z,58.94
2023-09-08T23:12:49.214Z,58.94
2023-09-08T23:15:16.723Z,60.07
2023-09-08T23:17:44.090Z,60.44
2023-09-08T23:20:16.276Z,60.60
2023-09-08T23:22:44.281Z,60.39
2023-09-08T23:25:11.695Z,61.51
2023-09-08T23:27:39.003Z,59.78
2023-09-08T23:30:07.061Z,60.37
2023-09-08T23:32:34.578Z,59.51
2023-09-08T23:35:01.912Z,59.88
2023-09-08T23:37:29.160Z,59.96
2023-09-08T23:39:56.316Z,61.39
2023-09-08T23:42:26.284Z,60.65
2023-09-08T23:44:53.584Z,61.26
2023-09-08T23:47:20.823Z,61.31
2023-09-08T23:49:48.114Z,61.31
2023-09-08T23:52:15.168Z,61.10
2023-09-08T23:54:42.350Z,60.64
2023-09-08T23:57:09.756Z,60.10
2023-09-08T23:59:36.922Z,60.30
